Time;durP1;ratioP1;P1;durP2;ratioP2;P2;SDS_P1;SDS_P2;PMS_P1;PMS_P2;Temp;Humidity;BMP_temperature;BMP_pressure;BME280_temperature;BME280_humidity;BME280_pressure;Samples;Min_cycle;Max_cycle;Signal;HPM_P1;HPM_P2
2023/07/08 00:00:25;;;;;;;9.05;5.07;;;17.60;99.90;;;;;;5070481;28;20039;-90
2023/07/08 00:02:52;;;;;;;4.55;4.05;;;17.50;99.90;;;;;;4990407;28;20039;-89
2023/07/08 00:05:20;;;;;;;7.05;4.45;;;17.50;99.90;;;;;;5066816;28;20050;-89
2023/07/08 00:07:46;;;;;;;6.30;4.88;;;17.40;99.90;;;;;;4975351;28;20061;-89
2023/07/08 00:10:24;;;;;;;5.15;4.38;;;17.40;99.90;;;;;;4976329;28;20408;-89
2023/07/08 00:12:52;;;;;;;5.45;3.95;;;17.40;99.90;;;;;;5064604;28;20070;-91
2023/07/08 00:15:20;;;;;;;5.20;4.03;;;17.40;99.90;;;;;;5062517;28;20042;-89
2023/07/08 00:17:46;;;;;;;5.57;4.25;;;17.30;99.90;;;;;;4978394;28;20486;-87
2023/07/08 00:20:28;;;;;;;6.72;4.05;;;17.30;99.90;;;;;;4975534;28;20099;-89
2023/07/08 00:22:55;;;;;;;8.27;4.65;;;17.30;99.90;;;;;;5037964;28;20046;-89
2023/07/08 00:25:21;;;;;;;4.55;4.15;;;17.20;99.90;;;;;;4979086;28;20058;-90
2023/07/08 00:27:48;;;;;;;5.72;4.35;;;17.20;99.90;;;;;;4959825;28;20616;-90
2023/07/08 00:30:23;;;;;;;4.85;4.35;;;17.20;99.90;;;;;;5058572;28;20035;-89
2023/07/08 00:32:55;;;;;;;5.95;4.35;;;17.20;99.90;;;;;;5062600;28;20469;-87
2023/07/08 00:35:43;;;;;;;6.63;4.88;;;17.10;99.90;;;;;;5068675;28;20070;-88
2023/07/08 00:38:26;;;;;;;6.28;4.40;;;17.10;99.90;;;;;;4994012;28;20068;-89
2023/07/08 00:41:16;;;;;;;5.00;4.35;;;17.10;99.90;;;;;;5069527;28;20042;-90
2023/07/08 00:43:53;;;;;;;5.40;4.60;;;17.10;99.90;;;;;;4987271;28;20058;-89
2023/07/08 00:46:31;;;;;;;6.15;4.43;;;17.00;99.90;;;;;;5092375;28;20042;-89
2023/07/08 00:49:38;;;;;;;6.10;4.47;;;17.00;99.90;;;;;;4977826;28;20070;-89
2023/07/08 00:52:25;;;;;;;6.25;4.53;;;17.00;99.90;;;;;;4977202;28;20394;-90
2023/07/08 00:54:53;;;;;;;5.85;4.75;;;17.00;99.90;;;;;;5019735;28;20096;-89
2023/07/08 00:57:21;;;;;;;8.50;4.72;;;17.00;99.90;;;;;;5006315;28;20038;-89
2023/07/08 00:59:56;;;;;;;6.32;4.80;;;17.00;99.90;;;;;;4992550;28;20046;-90
2023/07/08 01:02:26;;;;;;;7.20;4.60;;;17.00;99.90;;;;;;4986260;28;20039;-91
2023/07/08 01:05:04;;;;;;;6.45;4.90;;;17.00;99.90;;;;;;5067320;28;20400;-90
2023/07/08 01:07:33;;;;;;;6.53;4.90;;;16.90;99.90;;;;;;4977205;28;20091;-91
2023/07/08 01:10:06;;;;;;;6.45;4.65;;;16.90;99.90;;;;;;4967431;28;20049;-89
2023/07/08 01:12:38;;;;;;;5.93;4.20;;;16.90;99.90;;;;;;5075771;28;20054;-91
2023/07/08 01:15:07;;;;;;;6.30;4.82;;;16.90;99.90;;;;;;5060563;28;20305;-90
2023/07/08 01:17:33;;;;;;;6.22;5.05;;;16.90;99.90;;;;;;4993806;28;20047;-90
2023/07/08 01:20:04;;;;;;;6.25;4.50;;;16.80;99.90;;;;;;4992877;28;20041;-89
2023/07/08 01:22:36;;;;;;;6.38;4.75;;;16.80;99.90;;;;;;4966517;28;20487;-89
2023/07/08 01:25:03;;;;;;;4.97;4.32;;;16.80;99.90;;;;;;5040753;28;20068;-88
2023/07/08 01:27:33;;;;;;;5.15;4.55;;;16.90;99.90;;;;;;4965464;28;20038;-89
2023/07/08 01:30:01;;;;;;;7.90;4.63;;;16.90;99.90;;;;;;4991633;28;20038;-89
2023/07/08 01:32:27;;;;;;;6.30;4.50;;;16.80;99.90;;;;;;5040840;28;20384;-88
2023/07/08 01:35:00;;;;;;;7.90;4.97;;;16.80;99.90;;;;;;4968499;28;20064;-90
2023/07/08 01:37:48;;;;;;;6.13;4.43;;;16.80;99.90;;;;;;4979843;28;20078;-88
2023/07/08 01:40:25;;;;;;;7.07;5.05;;;16.80;99.90;;;;;;4974444;28;20042;-88
2023/07/08 01:42:51;;;;;;;8.05;4.72;;;16.80;99.90;;;;;;4974545;28;20129;-88
2023/07/08 01:45:20;;;;;;;5.72;4.35;;;16.70;99.90;;;;;;4959911;28;20479;-89
2023/07/08 01:48:02;;;;;;;6.15;4.57;;;16.70;99.90;;;;;;4995166;28;20055;-88
2023/07/08 01:50:29;;;;;;;6.15;4.97;;;16.70;99.90;;;;;;5062839;28;20043;-90
2023/07/08 01:52:59;;;;;;;7.43;4.65;;;16.70;99.90;;;;;;4977000;28;20038;-89
2023/07/08 01:55:28;;;;;;;6.35;4.97;;;16.70;99.90;;;;;;4948066;28;20038;-91
2023/07/08 01:57:54;;;;;;;7.57;5.80;;;16.60;99.90;;;;;;5036293;28;20074;-87
2023/07/08 02:00:21;;;;;;;8.25;5.30;;;16.60;99.90;;;;;;5017001;28;20074;-90
2023/07/08 02:02:48;;;;;;;8.00;5.18;;;17.40;99.90;;;;;;4979275;28;20047;-90
2023/07/08 02:05:14;;;;;;;6.05;5.13;;;16.60;99.90;;;;;;4986574;28;20034;-90
2023/07/08 02:07:40;;;;;;;7.38;4.95;;;16.60;99.90;;;;;;4977766;28;20053;-89
2023/07/08 02:10:07;;;;;;;7.90;4.80;;;16.60;99.90;;;;;;4987271;28;20034;-91
2023/07/08 02:12:33;;;;;;;7.38;5.68;;;16.70;99.90;;;;;;4965456;28;20058;-91
2023/07/08 02:15:02;;;;;;;6.80;5.15;;;16.60;99.90;;;;;;4962924;28;20096;-90
2023/07/08 02:17:28;;;;;;;7.03;5.57;;;16.30;99.90;;;;;;4953293;28;20042;-88
2023/07/08 02:19:55;;;;;;;6.63;5.00;;;16.60;99.90;;;;;;4980270;28;20112;-87
2023/07/08 02:22:21;;;;;;;6.35;5.03;;;16.70;99.90;;;;;;5061938;28;20553;-89
2023/07/08 02:24:47;;;;;;;9.98;4.90;;;16.60;99.90;;;;;;4965230;28;20091;-89
2023/07/08 02:27:14;;;;;;;7.80;4.60;;;16.70;99.90;;;;;;4988549;28;20038;-89
2023/07/08 02:29:40;;;;;;;8.10;4.95;;;16.60;99.90;;;;;;4999030;28;20067;-89
2023/07/08 02:32:09;;;;;;;8.05;4.88;;;16.60;99.90;;;;;;4981230;28;20103;-89
2023/07/08 02:34:36;;;;;;;6.20;5.05;;;16.60;99.90;;;;;;4977647;28;20042;-90
2023/07/08 02:37:02;;;;;;;6.88;5.07;;;16.60;99.90;;;;;;4959144;28;20042;-90
2023/07/08 02:39:29;;;;;;;5.88;5.15;;;16.60;99.90;;;;;;4967372;28;20432;-89
2023/07/08 02:41:55;;;;;;;6.00;4.75;;;16.60;99.90;;;;;;4964005;28;20034;-90
2023/07/08 02:44:21;;;;;;;9.10;5.47;;;16.60;99.90;;;;;;4977671;28;20054;-90
2023/07/08 02:46:46;;;;;;;6.55;4.93;;;16.60;99.90;;;;;;4982781;28;20125;-88
2023/07/08 02:49:12;;;;;;;6.43;5.22;;;16.60;99.90;;;;;;4958169;28;20088;-91
2023/07/08 02:51:38;;;;;;;5.97;5.38;;;16.60;99.90;;;;;;4964759;28;20059;-91
2023/07/08 02:54:04;;;;;;;6.72;5.32;;;16.60;99.90;;;;;;5060762;28;20042;-89
2023/07/08 02:56:30;;;;;;;7.90;5.28;;;16.60;99.90;;;;;;5060974;28;20043;-89
2023/07/08 02:58:55;;;;;;;7.32;5.80;;;16.60;99.90;;;;;;4982787;28;20441;-90
2023/07/08 03:01:23;;;;;;;5.68;5.10;;;16.60;99.90;;;;;;5053988;28;20034;-89
2023/07/08 03:03:50;;;;;;;8.07;5.90;;;16.60;99.90;;;;;;5032331;28;20058;-90
2023/07/08 03:06:16;;;;;;;8.30;4.80;;;16.60;99.90;;;;;;4970335;28;20045;-89
2023/07/08 03:08:41;;;;;;;8.45;5.32;;;16.60;99.90;;;;;;4977328;28;20038;-91
2023/07/08 03:11:08;;;;;;;7.13;5.45;;;16.60;99.90;;;;;;4968913;28;20034;-89
2023/07/08 03:13:34;;;;;;;7.65;5.47;;;16.60;99.90;;;;;;5007921;28;20389;-90
2023/07/08 03:16:02;;;;;;;6.45;5.65;;;16.60;99.90;;;;;;4969974;28;20040;-90
2023/07/08 03:18:29;;;;;;;7.15;5.80;;;16.60;99.90;;;;;;4957894;28;20096;-89
2023/07/08 03:20:56;;;;;;;5.60;5.10;;;16.60;99.90;;;;;;5071203;28;20049;-90
2023/07/08 03:23:24;;;;;;;8.40;5.80;;;16.60;99.90;;;;;;4995823;28;20082;-91
2023/07/08 03:25:50;;;;;;;6.60;5.50;;;16.30;99.90;;;;;;4961375;28;20034;-91
2023/07/08 03:28:16;;;;;;;6.00;5.13;;;16.70;99.90;;;;;;4959803;28;20043;-89
2023/07/08 03:30:44;;;;;;;7.45;5.55;;;16.40;99.90;;;;;;4952184;28;20038;-90
2023/07/08 03:33:11;;;;;;;6.63;5.63;;;16.70;99.90;;;;;;4956772;28;20042;-89
2023/07/08 03:35:40;;;;;;;5.78;5.18;;;16.70;99.90;;;;;;4966770;28;20183;-89
2023/07/08 03:38:06;;;;;;;8.88;5.85;;;16.60;99.90;;;;;;4959815;28;20235;-90
2023/07/08 03:40:32;;;;;;;7.22;5.88;;;16.70;99.90;;;;;;4974386;28;20050;-89
2023/07/08 03:42:58;;;;;;;7.10;5.97;;;16.40;99.90;;;;;;4974381;28;20133;-91
2023/07/08 03:45:25;;;;;;;7.72;5.85;;;16.70;99.90;;;;;;4954300;28;20138;-90
2023/07/08 03:47:51;;;;;;;6.97;5.80;;;16.70;99.90;;;;;;4967588;28;20118;-90
2023/07/08 03:50:23;;;;;;;7.32;5.28;;;16.80;99.90;;;;;;4973793;28;20066;-89
2023/07/08 03:52:51;;;;;;;7.55;6.07;;;16.40;99.90;;;;;;5060463;28;20038;-88
2023/07/08 03:55:17;;;;;;;8.40;6.20;;;16.70;99.90;;;;;;4978200;28;20046;-89
2023/07/08 03:57:43;;;;;;;8.18;5.43;;;16.80;99.90;;;;;;5021992;28;20044;-91
2023/07/08 04:00:12;;;;;;;7.05;5.45;;;17.20;99.90;;;;;;4967992;28;20042;-90
2023/07/08 04:02:39;;;;;;;8.70;6.15;;;16.70;99.90;;;;;;5066120;28;20410;-90
2023/07/08 04:05:05;;;;;;;6.50;5.78;;;16.80;99.90;;;;;;5073403;28;20050;-88
2023/07/08 04:07:32;;;;;;;7.00;5.55;;;16.90;99.90;;;;;;4972859;28;20045;-90
2023/07/08 04:09:57;;;;;;;7.95;5.70;;;16.10;99.90;;;;;;4947211;28;20030;-89
2023/07/08 04:12:23;;;;;;;8.35;5.75;;;16.80;99.90;;;;;;4974700;28;20045;-89
2023/07/08 04:14:49;;;;;;;7.47;5.57;;;16.90;99.90;;;;;;4967409;28;20050;-88
2023/07/08 04:17:18;;;;;;;7.55;5.78;;;16.90;99.90;;;;;;4982177;28;20106;-91
2023/07/08 04:19:43;;;;;;;8.40;5.70;;;16.90;99.90;;;;;;4967916;28;20081;-92
2023/07/08 04:22:10;;;;;;;8.30;6.30;;;17.00;99.90;;;;;;5068095;28;20054;-88
2023/07/08 04:24:36;;;;;;;7.63;6.05;;;17.00;99.90;;;;;;4982966;28;20042;-88
2023/07/08 04:27:02;;;;;;;6.53;5.93;;;17.00;99.90;;;;;;4974130;28;20040;-91
2023/07/08 04:29:28;;;;;;;8.40;5.90;;;17.00;99.90;;;;;;4986762;28;20107;-90
2023/07/08 04:31:54;;;;;;;9.98;6.22;;;17.10;99.90;;;;;;4965647;28;20473;-90
2023/07/08 04:34:20;;;;;;;7.82;6.22;;;17.10;99.90;;;;;;5098898;27;20080;-89
2023/07/08 04:36:46;;;;;;;8.05;6.18;;;17.20;99.90;;;;;;4992036;28;20042;-89
2023/07/08 04:39:13;;;;;;;6.63;5.93;;;17.10;99.90;;;;;;4992489;28;20659;-90
2023/07/08 04:41:40;;;;;;;9.18;6.47;;;17.20;99.90;;;;;;5002891;28;20039;-89
2023/07/08 04:44:10;;;;;;;7.78;6.68;;;17.20;99.90;;;;;;4963258;28;20058;-90
2023/07/08 04:46:42;;;;;;;7.22;5.97;;;17.20;99.90;;;;;;4990390;28;20239;-89
2023/07/08 04:49:11;;;;;;;7.60;6.18;;;17.30;99.90;;;;;;4975270;28;20086;-88
2023/07/08 04:51:54;;;;;;;8.88;6.68;;;17.30;99.90;;;;;;4994423;28;20057;-90
2023/07/08 04:54:20;;;;;;;10.82;6.78;;;17.30;99.90;;;;;;4954506;28;20043;-89
2023/07/08 04:56:48;;;;;;;7.80;5.95;;;17.30;99.90;;;;;;4957885;28;20432;-90
2023/07/08 04:59:20;;;;;;;8.77;6.05;;;17.40;99.90;;;;;;4990727;28;20050;-89
2023/07/08 05:01:46;;;;;;;7.68;6.15;;;17.40;99.90;;;;;;4975471;28;20137;-90
2023/07/08 05:04:14;;;;;;;8.93;6.13;;;17.40;99.90;;;;;;4971614;28;20129;-90
2023/07/08 05:06:41;;;;;;;7.95;6.43;;;17.40;99.90;;;;;;5022978;28;20034;-89
2023/07/08 05:09:07;;;;;;;7.05;6.35;;;17.50;99.90;;;;;;4971339;28;20744;-89
2023/07/08 05:11:34;;;;;;;6.78;5.65;;;17.50;99.90;;;;;;4968103;28;20030;-89
2023/07/08 05:14:01;;;;;;;9.13;5.55;;;17.50;99.90;;;;;;4980654;28;20042;-90
2023/07/08 05:16:27;;;;;;;5.47;4.95;;;17.60;99.90;;;;;;4973509;28;20042;-89
2023/07/08 05:18:53;;;;;;;7.05;5.82;;;17.60;99.90;;;;;;4986137;28;20042;-89
2023/07/08 05:21:20;;;;;;;8.45;5.43;;;17.70;99.90;;;;;;4975852;28;20041;-89
2023/07/08 05:23:49;;;;;;;6.35;5.75;;;17.70;99.90;;;;;;4971403;28;20402;-89
2023/07/08 05:26:15;;;;;;;6.90;6.20;;;17.70;99.90;;;;;;4973327;28;20053;-90
2023/07/08 05:28:41;;;;;;;6.47;5.80;;;17.80;99.90;;;;;;4973099;28;20129;-90
2023/07/08 05:31:07;;;;;;;8.63;6.72;;;17.80;99.90;;;;;;4976188;28;20049;-90
2023/07/08 05:33:34;;;;;;;6.57;5.88;;;17.90;99.90;;;;;;4954058;28;20711;-89
2023/07/08 05:36:00;;;;;;;5.53;5.03;;;18.00;99.90;;;;;;5074603;28;20186;-90
2023/07/08 05:38:26;;;;;;;5.60;5.10;;;18.10;99.90;;;;;;4956939;28;20042;-89
2023/07/08 05:40:57;;;;;;;7.90;5.68;;;18.10;99.90;;;;;;4970420;28;20498;-89
2023/07/08 05:43:23;;;;;;;6.07;5.47;;;18.10;99.90;;;;;;4972616;28;20082;-88
2023/07/08 05:45:56;;;;;;;7.80;5.63;;;18.20;99.90;;;;;;4955848;28;20057;-91
2023/07/08 05:48:22;;;;;;;6.70;5.50;;;18.30;99.90;;;;;;5065875;28;20100;-89
2023/07/08 05:50:48;;;;;;;7.53;5.90;;;18.40;99.90;;;;;;4979143;28;20424;-89
2023/07/08 05:53:18;;;;;;;7.68;5.80;;;18.40;99.90;;;;;;4949196;28;20038;-87
2023/07/08 05:55:44;;;;;;;7.10;5.90;;;18.50;99.90;;;;;;4954310;28;20043;-88
2023/07/08 05:58:10;;;;;;;7.00;5.82;;;18.50;99.90;;;;;;4960436;28;20051;-88
2023/07/08 06:00:36;;;;;;;8.48;5.68;;;18.60;99.90;;;;;;4973149;28;20098;-88
2023/07/08 06:03:02;;;;;;;5.93;5.38;;;18.60;99.90;;;;;;5073969;28;20036;-87
2023/07/08 06:05:28;;;;;;;7.32;6.00;;;18.70;99.90;;;;;;5068197;28;20590;-90
2023/07/08 06:07:54;;;;;;;6.43;5.72;;;18.80;99.90;;;;;;4980555;28;20067;-88
2023/07/08 06:10:20;;;;;;;6.95;5.60;;;18.90;99.90;;;;;;4954448;28;20038;-89
2023/07/08 06:12:46;;;;;;;6.53;5.53;;;19.00;99.90;;;;;;5049127;28;20046;-89
2023/07/08 06:15:12;;;;;;;6.07;5.30;;;19.00;99.90;;;;;;4972151;28;20042;-89
2023/07/08 06:17:38;;;;;;;7.13;5.53;;;19.10;99.90;;;;;;4957432;28;20049;-90
2023/07/08 06:20:04;;;;;;;6.63;5.35;;;19.20;99.90;;;;;;4970490;28;20038;-90
2023/07/08 06:22:30;;;;;;;5.72;4.97;;;19.30;99.90;;;;;;4976025;28;20046;-91
2023/07/08 06:24:55;;;;;;;5.82;5.28;;;19.40;99.90;;;;;;4977738;28;20049;-90
2023/07/08 06:27:21;;;;;;;5.63;4.78;;;19.60;99.90;;;;;;5008563;28;20034;-92
2023/07/08 06:29:47;;;;;;;5.63;5.05;;;19.60;99.90;;;;;;4974427;28;20389;-90
2023/07/08 06:32:13;;;;;;;8.98;5.18;;;19.60;99.90;;;;;;4957893;28;20047;-90
2023/07/08 06:34:39;;;;;;;5.70;5.10;;;19.70;99.90;;;;;;5053819;28;20100;-90
2023/07/08 06:37:05;;;;;;;9.95;6.22;;;20.00;99.90;;;;;;5058655;28;20039;-90
2023/07/08 06:39:31;;;;;;;9.32;4.80;;;20.00;99.90;;;;;;4963931;28;20053;-91
2023/07/08 06:41:57;;;;;;;5.22;4.55;;;20.10;99.90;;;;;;4986303;28;20039;-91
2023/07/08 06:44:26;;;;;;;5.50;4.53;;;20.30;99.90;;;;;;4952114;28;20138;-89
2023/07/08 06:46:52;;;;;;;6.05;4.95;;;20.10;99.90;;;;;;5064743;28;20063;-90
2023/07/08 06:49:18;;;;;;;5.88;4.32;;;20.60;99.90;;;;;;4964567;28;20072;-91
2023/07/08 06:51:45;;;;;;;7.15;4.53;;;20.90;99.90;;;;;;4985913;28;20059;-91
2023/07/08 06:54:11;;;;;;;7.72;4.82;;;21.10;99.90;;;;;;4968008;28;20913;-89
2023/07/08 06:56:39;;;;;;;6.05;4.80;;;21.00;99.90;;;;;;4970552;28;20070;-89
2023/07/08 06:59:05;;;;;;;5.50;4.22;;;21.50;99.90;;;;;;5049166;28;20035;-90
2023/07/08 07:01:31;;;;;;;7.15;4.32;;;21.50;99.90;;;;;;5000281;28;20103;-91
2023/07/08 07:03:57;;;;;;;7.07;4.70;;;21.70;99.90;;;;;;4956910;28;20081;-89
2023/07/08 07:06:23;;;;;;;5.53;5.03;;;21.80;99.90;;;;;;5043691;28;20100;-93
2023/07/08 07:08:48;;;;;;;5.65;4.72;;;21.90;99.90;;;;;;4966318;28;20037;-89
2023/07/08 07:11:14;;;;;;;7.90;4.68;;;22.00;99.90;;;;;;5053634;28;20045;-90
2023/07/08 07:13:40;;;;;;;5.30;4.30;;;22.20;99.90;;;;;;5046100;28;20103;-91
2023/07/08 07:16:06;;;;;;;5.65;4.22;;;22.30;99.90;;;;;;4959488;28;20273;-90
2023/07/08 07:18:32;;;;;;;5.60;4.15;;;22.30;99.90;;;;;;5002873;28;20512;-91
2023/07/08 07:20:59;;;;;;;5.78;3.97;;;22.30;99.90;;;;;;4986059;28;20065;-91
2023/07/08 07:23:25;;;;;;;4.32;3.65;;;22.50;99.90;;;;;;5072970;28;20115;-92
2023/07/08 07:25:51;;;;;;;5.97;4.30;;;22.60;99.90;;;;;;5057857;28;20085;-91
2023/07/08 07:28:17;;;;;;;5.85;4.35;;;22.60;99.90;;;;;;5067274;28;20042;-92
2023/07/08 07:30:44;;;;;;;5.78;4.38;;;22.60;99.90;;;;;;4975570;28;20038;-91
2023/07/08 07:33:10;;;;;;;5.50;4.35;;;22.90;99.90;;;;;;4976394;28;20616;-90
2023/07/08 07:35:41;;;;;;;4.60;3.38;;;22.80;99.90;;;;;;4974309;28;20537;-90
2023/07/08 07:38:07;;;;;;;6.95;4.85;;;22.90;99.90;;;;;;4966001;28;20080;-92
2023/07/08 07:40:33;;;;;;;4.47;3.80;;;23.10;99.90;;;;;;5052054;28;20345;-91
2023/07/08 07:42:59;;;;;;;4.15;3.58;;;23.00;99.90;;;;;;5049703;28;20460;-90
2023/07/08 07:45:25;;;;;;;5.70;3.60;;;23.00;99.90;;;;;;4965906;28;20134;-92
2023/07/08 07:47:51;;;;;;;5.70;4.22;;;23.00;99.90;;;;;;5064250;28;20489;-90
2023/07/08 07:50:17;;;;;;;4.40;3.97;;;23.40;99.90;;;;;;4976766;28;20049;-91
2023/07/08 07:52:42;;;;;;;4.20;3.67;;;23.40;99.90;;;;;;4959755;28;20050;-92
2023/07/08 07:55:08;;;;;;;4.78;3.53;;;23.50;99.90;;;;;;5010964;28;20049;-91
2023/07/08 07:57:34;;;;;;;4.50;3.40;;;23.60;99.90;;;;;;4969518;28;20050;-90
2023/07/08 08:00:00;;;;;;;4.10;3.70;;;23.60;99.90;;;;;;5086213;28;20073;-89
2023/07/08 08:02:26;;;;;;;4.50;3.50;;;23.60;99.90;;;;;;4991806;28;20050;-90
2023/07/08 08:04:52;;;;;;;3.97;3.58;;;23.70;99.90;;;;;;4980281;28;20038;-90
2023/07/08 08:07:17;;;;;;;5.57;4.07;;;23.70;99.90;;;;;;4988271;28;20038;-90
2023/07/08 08:09:43;;;;;;;4.00;3.60;;;23.80;99.90;;;;;;4978567;28;20050;-90
2023/07/08 08:12:10;;;;;;;4.45;4.05;;;23.90;99.90;;;;;;4975983;28;20538;-90
2023/07/08 08:14:36;;;;;;;5.05;3.53;;;24.30;99.90;;;;;;4971551;28;20050;-90
2023/07/08 08:17:02;;;;;;;4.20;3.80;;;24.40;99.90;;;;;;5076414;28;20435;-90
2023/07/08 08:19:30;;;;;;;3.15;2.67;;;24.40;99.90;;;;;;4958607;28;20109;-92
2023/07/08 08:21:55;;;;;;;4.00;3.30;;;24.50;99.90;;;;;;4986666;28;20045;-90
2023/07/08 08:24:22;;;;;;;3.90;3.28;;;24.50;99.90;;;;;;4976825;28;20042;-90
2023/07/08 08:26:48;;;;;;;4.85;3.63;;;24.50;99.90;;;;;;4957905;28;20042;-91
2023/07/08 08:29:14;;;;;;;4.72;3.55;;;24.70;99.90;;;;;;4998401;28;20034;-87
2023/07/08 08:31:40;;;;;;;4.85;3.17;;;24.70;99.90;;;;;;4957438;28;20043;-88
2023/07/08 08:34:05;;;;;;;5.40;3.75;;;24.90;99.90;;;;;;4982236;28;20049;-87
2023/07/08 08:36:31;;;;;;;4.10;3.28;;;24.90;99.90;;;;;;4975327;28;20047;-89
2023/07/08 08:38:57;;;;;;;3.80;3.50;;;25.00;99.90;;;;;;4974338;28;20030;-88
2023/07/08 08:41:43;;;;;;;3.65;3.28;;;25.50;99.90;;;;;;4974016;28;20520;-87
2023/07/08 08:44:16;;;;;;;4.38;3.47;;;25.40;99.90;;;;;;4973637;28;20050;-88
2023/07/08 08:47:00;;;;;;;4.50;3.60;;;25.40;99.90;;;;;;4983962;28;20034;-88
2023/07/08 08:49:54;;;;;;;3.63;3.15;;;25.60;99.90;;;;;;4985574;28;20050;-88
2023/07/08 08:52:19;;;;;;;3.88;3.03;;;25.80;99.90;;;;;;5070822;28;20038;-89
2023/07/08 08:54:45;;;;;;;5.00;3.38;;;25.90;99.90;;;;;;4957295;28;20072;-91
2023/07/08 08:57:11;;;;;;;3.60;3.28;;;26.00;99.90;;;;;;4970483;28;20095;-90
2023/07/08 08:59:53;;;;;;;4.55;3.30;;;26.00;99.90;;;;;;4999970;28;20044;-90
2023/07/08 09:02:42;;;;;;;3.42;3.13;;;25.50;99.90;;;;;;4973282;28;20103;-90
2023/07/08 09:05:10;;;;;;;3.35;3.05;;;26.40;99.90;;;;;;5064270;28;20374;-90
2023/07/08 09:07:52;;;;;;;3.78;3.15;;;26.60;99.90;;;;;;4972716;28;20046;-89
2023/07/08 09:10:29;;;;;;;4.97;3.13;;;26.70;99.90;;;;;;5074896;28;20443;-90
2023/07/08 09:12:57;;;;;;;3.88;3.05;;;26.70;99.90;;;;;;5006401;28;20042;-88
2023/07/08 09:15:25;;;;;;;4.22;3.05;;;27.20;99.90;;;;;;4954227;28;20046;-90
2023/07/08 09:17:57;;;;;;;3.55;3.13;;;27.20;97.10;;;;;;5060917;28;20100;-88
2023/07/08 09:20:28;;;;;;;4.05;3.30;;;27.40;76.10;;;;;;5065964;28;20125;-91
2023/07/08 09:23:09;;;;;;;3.17;2.80;;;27.60;78.30;;;;;;4999317;28;20145;-90
2023/07/08 09:25:46;;;;;;;3.13;2.60;;;27.90;65.50;;;;;;4972451;28;20081;-89
2023/07/08 09:28:14;;;;;;;3.30;3.00;;;28.30;69.90;;;;;;4972218;28;20652;-90
2023/07/08 09:30:40;;;;;;;3.10;2.78;;;28.50;47.50;;;;;;5054536;28;20035;-89
2023/07/08 09:33:08;;;;;;;3.05;2.70;;;28.50;51.60;;;;;;5038161;28;20486;-89
2023/07/08 09:35:48;;;;;;;3.28;2.97;;;28.70;33.80;;;;;;5069622;28;20449;-89
2023/07/08 09:38:22;;;;;;;3.30;3.00;;;28.80;1.00;;;;;;4983137;28;20030;-89
2023/07/08 09:40:51;;;;;;;;;;;29.00;1.00;;;;;;4989449;28;20750;-89
2023/07/08 09:43:39;;;;;;;4.53;3.28;;;29.30;1.00;;;;;;4973067;28;19922;-89
2023/07/08 09:46:10;;;;;;;3.28;2.65;;;29.30;1.00;;;;;;4954537;28;20049;-89
2023/07/08 09:48:37;;;;;;;8.32;3.30;;;29.60;1.00;;;;;;4984303;28;20060;-90
2023/07/08 09:51:04;;;;;;;3.17;2.60;;;29.30;1.00;;;;;;4967923;28;20031;-90
2023/07/08 09:53:29;;;;;;;3.67;3.03;;;29.50;1.00;;;;;;4969341;28;20150;-89
2023/07/08 09:56:02;;;;;;;3.47;3.03;;;29.80;1.00;;;;;;5063620;28;20117;-91
2023/07/08 09:58:34;;;;;;;3.30;2.60;;;30.20;1.00;;;;;;5064690;28;20038;-89
2023/07/08 10:01:09;;;;;;;3.70;3.08;;;30.10;1.00;;;;;;5016279;28;20123;-88
2023/07/08 10:03:36;;;;;;;4.25;2.80;;;30.30;1.00;;;;;;4991022;28;20093;-89
2023/07/08 10:06:20;;;;;;;3.78;3.03;;;30.30;1.00;;;;;;4972919;28;20036;-90
2023/07/08 10:08:47;;;;;;;4.13;3.00;;;30.50;99.90;;;;;;5050909;28;20076;-89
2023/07/08 10:11:26;;;;;;;4.07;2.78;;;30.60;1.00;;;;;;4979092;28;20035;-89
2023/07/08 10:13:55;;;;;;;3.15;2.85;;;30.40;99.90;;;;;;4987060;28;20407;-89
2023/07/08 10:16:28;;;;;;;4.40;2.67;;;30.30;1.00;;;;;;4965566;28;21838;-92
2023/07/08 10:18:54;;;;;;;4.25;3.30;;;31.00;1.00;;;;;;4974433;28;20082;-91
2023/07/08 10:21:54;;;;;;;3.33;3.03;;;30.80;1.00;;;;;;4961508;28;20034;-90
2023/07/08 10:24:39;;;;;;;3.60;3.17;;;30.70;99.90;;;;;;5009832;28;20036;-91
2023/07/08 10:27:33;;;;;;;3.78;2.80;;;30.50;99.90;;;;;;4977046;28;20485;-90
2023/07/08 10:30:25;;;;;;;3.55;3.00;;;31.00;99.90;;;;;;4967391;28;20034;-90
2023/07/08 10:33:32;;;;;;;3.33;3.03;;;31.00;99.90;;;;;;5062448;28;20116;-89
2023/07/08 10:36:36;;;;;;;4.60;2.97;;;31.40;99.90;;;;;;5079045;28;20872;-91
2023/07/08 10:39:26;;;;;;;3.28;2.97;;;31.50;99.90;;;;;;4958383;28;20057;-90
2023/07/08 10:42:17;;;;;;;3.75;3.17;;;31.50;99.90;;;;;;4974685;28;20043;-91
2023/07/08 10:45:07;;;;;;;4.15;3.00;;;31.50;99.90;;;;;;4989645;28;20491;-89
2023/07/08 10:47:59;;;;;;;3.95;2.90;;;31.40;99.90;;;;;;5086202;28;20038;-90
2023/07/08 10:50:50;;;;;;;4.40;3.10;;;31.40;99.90;;;;;;4995889;28;20038;-89
2023/07/08 10:53:44;;;;;;;3.97;3.15;;;31.90;99.90;;;;;;4962499;28;20054;-89
2023/07/08 10:56:51;;;;;;;3.17;2.88;;;31.70;99.90;;;;;;4981775;28;20038;-89
2023/07/08 10:59:37;;;;;;;5.10;3.53;;;32.00;99.90;;;;;;4973882;28;20084;-89
2023/07/08 11:02:51;;;;;;;4.97;3.50;;;31.40;99.90;;;;;;4983122;28;20046;-89
2023/07/08 11:05:25;;;;;;;3.25;2.95;;;31.80;99.90;;;;;;5041173;28;20066;-91
2023/07/08 11:07:54;;;;;;;;;;;31.70;99.90;;;;;;4973965;28;20082;-90
2023/07/08 11:10:34;;;;;;;4.05;3.03;;;31.90;99.90;;;;;;5065005;28;19921;-90
2023/07/08 11:13:27;;;;;;;4.25;2.78;;;31.80;99.90;;;;;;4973788;28;20041;-89
2023/07/08 11:16:11;;;;;;;3.78;2.83;;;31.70;99.90;;;;;;5059304;28;20053;-88
2023/07/08 11:18:42;;;;;;;4.38;2.92;;;31.80;99.90;;;;;;4991849;28;20394;-90
2023/07/08 11:21:31;;;;;;;3.63;3.33;;;31.90;99.90;;;;;;4960227;28;20042;-90
2023/07/08 11:24:27;;;;;;;5.10;3.50;;;32.10;99.90;;;;;;4991770;28;20039;-89
2023/07/08 11:27:21;;;;;;;3.30;3.00;;;32.00;99.90;;;;;;4984055;28;20502;-88
2023/07/08 11:30:12;;;;;;;4.15;3.10;;;32.20;99.90;;;;;;4975890;28;20045;-90
2023/07/08 11:32:38;;;;;;;3.75;3.33;;;32.30;99.90;;;;;;4973884;28;20398;-89
2023/07/08 11:35:13;;;;;;;4.03;3.17;;;32.30;99.90;;;;;;4978860;28;20038;-88
2023/07/08 11:37:40;;;;;;;3.90;3.50;;;32.30;99.90;;;;;;5057240;28;20589;-90
2023/07/08 11:40:20;;;;;;;5.85;3.00;;;32.20;99.90;;;;;;4973047;28;20054;-89
2023/07/08 11:43:00;;;;;;;4.95;3.22;;;32.40;99.90;;;;;;4989047;28;20043;-89
2023/07/08 11:45:32;;;;;;;5.32;4.22;;;32.50;99.90;;;;;;4992744;28;20088;-90
2023/07/08 11:48:28;;;;;;;3.88;3.10;;;32.20;99.90;;;;;;4994624;28;20034;-90
2023/07/08 11:50:55;;;;;;;4.38;3.47;;;32.90;99.90;;;;;;5004473;28;20074;-89
2023/07/08 11:53:30;;;;;;;3.60;3.28;;;32.70;99.90;;;;;;5019493;28;20046;-91
2023/07/08 11:55:57;;;;;;;3.67;3.38;;;32.70;99.90;;;;;;4996823;28;20045;-91
2023/07/08 11:58:30;;;;;;;3.95;3.20;;;32.50;99.90;;;;;;5058926;28;20049;-90
2023/07/08 12:01:03;;;;;;;;;;;32.80;99.90;;;;;;4994943;28;20046;-89
2023/07/08 12:03:38;;;;;;;3.40;3.10;;;32.80;99.90;;;;;;4994283;28;20380;-90
2023/07/08 12:06:25;;;;;;;4.00;3.28;;;32.80;99.90;;;;;;4979628;28;20096;-90
2023/07/08 12:08:53;;;;;;;3.97;3.60;;;33.10;99.90;;;;;;4967893;28;20160;-89
2023/07/08 12:11:34;;;;;;;3.72;3.38;;;32.90;99.90;;;;;;4985462;28;20034;-89
2023/07/08 12:14:02;;;;;;;3.90;3.60;;;32.70;99.90;;;;;;4993801;28;20045;-90
2023/07/08 12:16:29;;;;;;;4.18;3.60;;;33.00;99.90;;;;;;4969078;28;20057;-90
2023/07/08 12:18:57;;;;;;;4.00;3.25;;;33.00;99.90;;;;;;4964474;28;20046;-90
2023/07/08 12:21:27;;;;;;;8.20;3.50;;;33.10;99.90;;;;;;4974643;28;20406;-90
2023/07/08 12:23:53;;;;;;;6.25;3.50;;;33.00;99.90;;;;;;4963671;28;20030;-90
2023/07/08 12:26:21;;;;;;;6.82;3.30;;;32.90;99.90;;;;;;4958440;28;20056;-90
2023/07/08 12:28:47;;;;;;;3.58;3.28;;;33.20;99.90;;;;;;4974325;28;20039;-90
2023/07/08 12:31:21;;;;;;;4.20;3.50;;;33.30;99.90;;;;;;4982103;28;20042;-90
2023/07/08 12:33:48;;;;;;;3.78;3.10;;;32.80;99.90;;;;;;4973072;28;20521;-92
2023/07/08 12:36:19;;;;;;;4.22;3.42;;;32.90;99.90;;;;;;4972450;28;20047;-92
2023/07/08 12:38:47;;;;;;;4.93;3.55;;;32.60;99.90;;;;;;4971995;28;20125;-90
2023/07/08 12:41:22;;;;;;;4.03;3.35;;;32.60;99.90;;;;;;4958259;28;20064;-91
2023/07/08 12:43:48;;;;;;;4.13;3.72;;;32.80;99.90;;;;;;4980784;28;20046;-91
2023/07/08 12:46:17;;;;;;;6.00;3.58;;;33.10;99.90;;;;;;4973923;28;20066;-90
2023/07/08 12:48:43;;;;;;;3.90;3.58;;;33.10;99.90;;;;;;4987225;28;20044;-91
2023/07/08 12:51:16;;;;;;;3.67;3.38;;;33.10;99.90;;;;;;4974990;28;20510;-90
2023/07/08 12:53:42;;;;;;;3.58;3.28;;;33.20;99.90;;;;;;5055896;28;20092;-89
2023/07/08 12:56:09;;;;;;;6.25;4.00;;;33.30;99.90;;;;;;4973966;28;20046;-91
2023/07/08 12:58:40;;;;;;;4.72;3.47;;;33.40;99.90;;;;;;4957720;28;20370;-88
2023/07/08 13:01:07;;;;;;;5.63;3.40;;;33.10;99.90;;;;;;5058553;28;20046;-89
2023/07/08 13:03:40;;;;;;;4.30;3.80;;;33.00;99.90;;;;;;4957396;28;20047;-90
2023/07/08 13:06:09;;;;;;;4.40;4.00;;;33.10;99.80;;;;;;5055353;28;20077;-89